Time;durP1;ratioP1;P1;durP2;ratioP2;P2;SDS_P1;SDS_P2;PMS_P1;PMS_P2;Temp;Humidity;BMP_temperature;BMP_pressure;BME280_temperature;BME280_humidity;BME280_pressure;Samples;Min_cycle;Max_cycle;Signal;HPM_P1;HPM_P2
2023/05/02 00:00:32;;;;;;;;;;;8.60;99.90;;;;;;5083219;28;19955;-69
2023/05/02 00:02:58;;;;;;;;;;;8.60;99.90;;;;;;5083610;28;19983;-70
2023/05/02 00:05:25;;;;;;;;;;;8.50;99.90;;;;;;5083113;28;20200;-70
2023/05/02 00:07:53;;;;;;;;;;;8.50;99.90;;;;;;5082903;28;19920;-70
2023/05/02 00:10:20;;;;;;;;;;;8.50;99.90;;;;;;5083564;28;19979;-70
2023/05/02 00:12:47;;;;;;;;;;;8.50;99.90;;;;;;5083098;28;19983;-70
2023/05/02 00:15:13;;;;;;;;;;;8.50;99.90;;;;;;5081108;28;19983;-69
2023/05/02 00:17:41;;;;;;;;;;;8.40;99.90;;;;;;5082458;28;19967;-69
2023/05/02 00:20:08;;;;;;;;;;;8.40;99.90;;;;;;5083398;28;19920;-70
2023/05/02 00:22:35;;;;;;;;;;;8.40;99.90;;;;;;5083045;28;20212;-70
2023/05/02 00:25:04;;;;;;;;;;;8.40;99.90;;;;;;5083411;28;19927;-69
2023/05/02 00:27:32;;;;;;;;;;;8.40;99.90;;;;;;5082337;28;19920;-70
2023/05/02 00:29:59;;;;;;;;;;;8.30;99.90;;;;;;5083207;28;19920;-70
2023/05/02 00:32:26;;;;;;;;;;;8.30;99.90;;;;;;5083208;28;19920;-70
2023/05/02 00:34:52;;;;;;;;;;;8.30;99.90;;;;;;5083175;28;19988;-70
2023/05/02 00:37:19;;;;;;;;;;;8.30;99.90;;;;;;5082579;28;19984;-70
2023/05/02 00:39:46;;;;;;;;;;;8.30;99.90;;;;;;5083220;28;19944;-69
2023/05/02 00:42:13;;;;;;;;;;;8.30;99.90;;;;;;5083135;28;19920;-69
2023/05/02 00:44:40;;;;;;;;;;;8.20;99.90;;;;;;5085839;28;19920;-70
2023/05/02 00:47:07;;;;;;;;;;;8.30;99.90;;;;;;5085963;28;20271;-72
2023/05/02 00:49:33;;;;;;;;;;;8.20;99.90;;;;;;5087012;28;19928;-70
2023/05/02 00:52:00;;;;;;;;;;;8.20;99.90;;;;;;5086573;28;19966;-70
2023/05/02 00:54:27;;;;;;;;;;;8.20;99.90;;;;;;5086758;28;19953;-70
2023/05/02 00:56:53;;;;;;;;;;;8.20;99.90;;;;;;5086053;28;19956;-69
2023/05/02 00:59:22;;;;;;;;;;;8.10;99.90;;;;;;5086774;28;19979;-70
2023/05/02 01:01:52;;;;;;;;;;;8.10;99.90;;;;;;5086344;28;20172;-70
2023/05/02 01:04:23;;;;;;;;;;;8.00;99.90;;;;;;5086408;28;20115;-69
2023/05/02 01:06:56;;;;;;;;;;;8.00;99.90;;;;;;5085504;28;20226;-69
2023/05/02 01:09:30;;;;;;;;;;;8.00;99.90;;;;;;5086406;28;19927;-69
2023/05/02 01:12:01;;;;;;;;;;;8.00;99.90;;;;;;5086270;28;19921;-70
2023/05/02 01:14:30;;;;;;;;;;;8.00;99.90;;;;;;5086535;28;19920;-70
2023/05/02 01:16:58;;;;;;;;;;;8.00;99.90;;;;;;5086105;28;19985;-69
2023/05/02 01:19:29;;;;;;;;;;;8.00;99.90;;;;;;5086341;28;19920;-70
2023/05/02 01:21:56;;;;;;;;;;;7.90;99.90;;;;;;5086358;28;20190;-72
2023/05/02 01:24:26;;;;;;;;;;;8.00;99.90;;;;;;5086368;28;19920;-70
2023/05/02 01:26:59;;;;;;;;;;;7.90;99.90;;;;;;5085066;28;19955;-69
2023/05/02 01:29:27;;;;;;;;;;;7.90;99.90;;;;;;5086031;28;20213;-70
2023/05/02 01:31:55;;;;;;;;;;;7.90;99.90;;;;;;5086158;28;20252;-71
2023/05/02 01:34:22;;;;;;;;;;;7.90;99.90;;;;;;5086184;28;19924;-69
2023/05/02 01:36:50;;;;;;;;;;;7.90;99.90;;;;;;5085506;28;19921;-69
2023/05/02 01:39:19;;;;;;;;;;;7.90;99.90;;;;;;5085849;28;19927;-69
2023/05/02 01:41:47;;;;;;;;;;;8.00;99.90;;;;;;5085998;28;19963;-70
2023/05/02 01:44:15;;;;;;;;;;;8.00;99.90;;;;;;5085988;28;19920;-70
2023/05/02 01:46:44;;;;;;;;;;;7.90;99.90;;;;;;5085206;28;19921;-70
2023/05/02 01:49:11;;;;;;;;;;;8.00;99.90;;;;;;5085997;28;19952;-69
2023/05/02 01:51:43;;;;;;;;;;;7.90;99.90;;;;;;5085772;28;20112;-70
2023/05/02 01:54:11;;;;;;;;;;;7.70;99.90;;;;;;5085650;28;19952;-69
2023/05/02 01:56:38;;;;;;;;;;;7.60;99.90;;;;;;5099181;28;20108;-70
2023/05/02 01:59:06;;;;;;;;;;;7.60;99.90;;;;;;5105993;28;19920;-70
2023/05/02 02:01:33;;;;;;;;;;;7.60;99.90;;;;;;5106020;28;19942;-69
2023/05/02 02:04:01;;;;;;;;;;;7.60;99.90;;;;;;5105831;28;19951;-70
2023/05/02 02:06:30;;;;;;;;;;;7.60;99.90;;;;;;5104275;28;20254;-70
2023/05/02 02:08:56;;;;;;;;;;;7.60;99.90;;;;;;5100298;28;19920;-69
2023/05/02 02:11:25;;;;;;;;;;;7.60;99.90;;;;;;5087076;28;19920;-70
2023/05/02 02:13:55;;;;;;;;;;;7.60;99.90;;;;;;5099792;28;19979;-69
2023/05/02 02:16:25;;;;;;;;;;;7.60;99.90;;;;;;5093878;28;19962;-69
2023/05/02 02:18:54;;;;;;;;;;;7.60;99.90;;;;;;5098811;28;19975;-69
2023/05/02 02:21:23;;;;;;;;;;;7.60;99.90;;;;;;5089598;28;19967;-69
2023/05/02 02:23:51;;;;;;;;;;;7.50;99.90;;;;;;5085216;28;19979;-70
2023/05/02 02:26:19;;;;;;;;;;;7.50;99.90;;;;;;5085023;28;19954;-70
2023/05/02 02:28:46;;;;;;;;;;;7.40;99.90;;;;;;5092560;28;20112;-70
2023/05/02 02:31:12;;;;;;;;;;;7.40;99.90;;;;;;5101854;28;20108;-69
2023/05/02 02:33:39;;;;;;;;;;;7.40;99.90;;;;;;5084671;28;19963;-70
2023/05/02 02:36:08;;;;;;;;;;;7.30;99.90;;;;;;5103267;28;20255;-69
2023/05/02 02:38:42;;;;;;;;;;;7.30;99.90;;;;;;5092260;28;19928;-69
2023/05/02 02:41:12;;;;;;;;;;;7.30;99.90;;;;;;5103606;28;20111;-70
2023/05/02 02:43:43;;;;;;;;;;;7.30;99.90;;;;;;5098569;28;19920;-70
2023/05/02 02:46:22;;;;;;;;;;;7.20;99.90;;;;;;5086152;28;19921;-70
2023/05/02 02:48:52;;;;;;;;;;;7.20;99.90;;;;;;5104671;28;19926;-69
2023/05/02 02:51:23;;;;;;;;;;;7.20;99.90;;;;;;5104841;28;20003;-70
2023/05/02 02:53:57;;;;;;;;;;;7.20;99.90;;;;;;5088751;28;19920;-70
2023/05/02 02:56:29;;;;;;;;;;;7.20;99.90;;;;;;5095994;28;19935;-70
2023/05/02 02:58:57;;;;;;;;;;;7.20;99.90;;;;;;5104508;28;19920;-69
2023/05/02 03:01:25;;;;;;;;;;;7.20;99.90;;;;;;5100837;28;19987;-70
2023/05/02 03:03:51;;;;;;;;;;;7.20;99.90;;;;;;5084302;28;19966;-69
2023/05/02 03:06:18;;;;;;;;;;;7.20;99.90;;;;;;5083331;28;19952;-69
2023/05/02 03:08:45;;;;;;;;;;;7.30;99.90;;;;;;5084260;28;19967;-70
2023/05/02 03:11:13;;;;;;;;;;;7.30;99.90;;;;;;5084333;28;19952;-69
2023/05/02 03:13:40;;;;;;;;;;;7.30;99.90;;;;;;5084247;28;19920;-69
2023/05/02 03:16:18;;;;;;;;;;;7.40;99.90;;;;;;5083267;28;19992;-69
2023/05/02 03:18:45;;;;;;;;;;;7.50;99.90;;;;;;5084233;28;19951;-70
2023/05/02 03:21:11;;;;;;;;;;;7.60;99.90;;;;;;5084083;28;19952;-70
2023/05/02 03:23:38;;;;;;;;;;;7.60;99.90;;;;;;5084026;28;19996;-69
2023/05/02 03:26:05;;;;;;;;;;;7.70;99.90;;;;;;5083330;28;20166;-70
2023/05/02 03:28:33;;;;;;;;;;;7.80;99.90;;;;;;5083773;28;19924;-69
2023/05/02 03:31:00;;;;;;;;;;;7.80;99.90;;;;;;5084029;28;19920;-69
2023/05/02 03:33:26;;;;;;;;;;;7.80;99.90;;;;;;5083584;28;19983;-70
2023/05/02 03:35:53;;;;;;;;;;;7.80;99.90;;;;;;5083518;28;20469;-70
2023/05/02 03:38:20;;;;;;;;;;;7.90;99.90;;;;;;5083532;28;19983;-70
2023/05/02 03:40:46;;;;;;;;;;;7.90;99.90;;;;;;5083891;28;19956;-70
2023/05/02 03:43:13;;;;;;;;;;;7.90;99.90;;;;;;5098627;28;20166;-69
2023/05/02 03:45:41;;;;;;;;;;;8.00;99.90;;;;;;5103419;28;19979;-71
2023/05/02 03:48:08;;;;;;;;;;;8.10;99.90;;;;;;5103627;28;19920;-69
2023/05/02 03:50:34;;;;;;;;;;;8.10;99.90;;;;;;5103922;28;20162;-69
2023/05/02 03:53:01;;;;;;;;;;;8.10;99.90;;;;;;5090696;28;19980;-70
2023/05/02 03:55:28;;;;;;;;;;;8.20;99.90;;;;;;5103689;28;19924;-69
2023/05/02 03:57:54;;;;;;;;;;;8.10;99.90;;;;;;5103803;28;19920;-70
2023/05/02 04:00:21;;;;;;;;;;;8.20;99.90;;;;;;5111051;28;19966;-69
2023/05/02 04:02:50;;;;;;;;;;;8.20;99.90;;;;;;5124161;28;19920;-70
2023/05/02 04:05:16;;;;;;;;;;;8.20;99.90;;;;;;5123966;28;19961;-70
2023/05/02 04:07:43;;;;;;;;;;;8.30;99.90;;;;;;5103666;28;19920;-70
2023/05/02 04:10:15;;;;;;;;;;;8.20;99.90;;;;;;5103805;28;19943;-70
2023/05/02 04:12:41;;;;;;;;;;;8.30;99.90;;;;;;5103583;28;19920;-69
2023/05/02 04:15:09;;;;;;;;;;;8.30;99.90;;;;;;5103394;28;20275;-69
2023/05/02 04:17:36;;;;;;;;;;;8.30;99.90;;;;;;5102710;28;19962;-70
2023/05/02 04:20:04;;;;;;;;;;;8.30;99.90;;;;;;5107039;28;19920;-69
2023/05/02 04:22:31;;;;;;;;;;;8.30;99.90;;;;;;5107609;28;19988;-69
2023/05/02 04:24:57;;;;;;;;;;;8.30;99.90;;;;;;5107457;28;19955;-70
2023/05/02 04:27:24;;;;;;;;;;;8.30;99.90;;;;;;5106981;28;19920;-69
2023/05/02 04:29:51;;;;;;;;;;;8.40;99.90;;;;;;5107328;28;19982;-70
2023/05/02 04:32:17;;;;;;;;;;;8.40;99.90;;;;;;5107690;28;19973;-70
2023/05/02 04:34:44;;;;;;;;;;;8.40;99.90;;;;;;5107427;28;19951;-69
2023/05/02 04:37:12;;;;;;;;;;;8.50;99.90;;;;;;5106959;28;19928;-70
2023/05/02 04:39:39;;;;;;;;;;;8.50;99.90;;;;;;5107475;28;19982;-69
2023/05/02 04:42:06;;;;;;;;;;;8.50;99.90;;;;;;5107439;28;20093;-69
2023/05/02 04:44:32;;;;;;;;;;;8.60;99.90;;;;;;5107386;28;19955;-70
2023/05/02 04:46:59;;;;;;;;;;;8.60;99.90;;;;;;5094729;28;20177;-69
2023/05/02 04:49:26;;;;;;;;;;;8.60;99.90;;;;;;5086633;28;19924;-71
2023/05/02 04:51:52;;;;;;;;;;;8.60;99.90;;;;;;5086590;28;19955;-69
2023/05/02 04:54:20;;;;;;;;;;;8.60;99.90;;;;;;5086665;28;19927;-69
2023/05/02 04:56:47;;;;;;;;;;;8.70;99.90;;;;;;5083283;28;19995;-69
2023/05/02 04:59:14;;;;;;;;;;;8.60;99.90;;;;;;5090692;28;19928;-70
2023/05/02 05:01:40;;;;;;;;;;;8.70;99.90;;;;;;5098376;28;19920;-69
2023/05/02 05:04:07;;;;;;;;;;;8.70;99.90;;;;;;5107094;28;19926;-69
2023/05/02 05:06:34;;;;;;;;;;;8.60;99.90;;;;;;5105660;28;19955;-70
2023/05/02 05:09:01;;;;;;;;;;;8.70;99.90;;;;;;5095013;28;19928;-69
2023/05/02 05:11:29;;;;;;;;;;;8.80;99.90;;;;;;5086617;28;19983;-69
2023/05/02 05:13:58;;;;;;;;;;;8.80;99.90;;;;;;5086469;28;20115;-68
2023/05/02 05:16:24;;;;;;;;;;;8.80;99.90;;;;;;5085400;28;19970;-69
2023/05/02 05:18:52;;;;;;;;;;;8.90;99.90;;;;;;5086388;28;19983;-69
2023/05/02 05:21:19;;;;;;;;;;;8.90;99.90;;;;;;5086094;28;19920;-70
2023/05/02 05:23:46;;;;;;;;;;;8.90;99.90;;;;;;5085727;28;19962;-68
2023/05/02 05:26:14;;;;;;;;;;;9.00;99.90;;;;;;5090364;28;19920;-68
2023/05/02 05:28:42;;;;;;;;;;;9.00;99.90;;;;;;5106297;28;20116;-70
2023/05/02 05:31:10;;;;;;;;;;;9.00;99.90;;;;;;5106010;28;19920;-73
2023/05/02 05:33:37;;;;;;;;;;;9.10;99.90;;;;;;5105938;28;20208;-69
2023/05/02 05:36:04;;;;;;;;;;;9.10;99.90;;;;;;5106152;28;19927;-69
2023/05/02 05:38:31;;;;;;;;;;;9.10;99.90;;;;;;5106214;28;19924;-68
2023/05/02 05:40:58;;;;;;;;;;;9.10;99.90;;;;;;5106404;28;20252;-69
2023/05/02 05:43:25;;;;;;;;;;;9.20;99.90;;;;;;5105870;28;19962;-69
2023/05/02 05:45:53;;;;;;;;;;;9.20;99.90;;;;;;5104474;28;20143;-69
2023/05/02 05:48:20;;;;;;;;;;;9.30;99.90;;;;;;5105462;28;19983;-69
2023/05/02 05:50:46;;;;;;;;;;;9.30;99.90;;;;;;5106137;28;19979;-69
2023/05/02 05:53:13;;;;;;;;;;;9.30;99.90;;;;;;5105959;28;19959;-69
2023/05/02 05:55:40;;;;;;;;;;;9.40;99.90;;;;;;5105848;28;19983;-69
2023/05/02 05:58:07;;;;;;;;;;;9.40;99.90;;;;;;5102066;28;19996;-69
2023/05/02 06:00:34;;;;;;;;;;;9.50;99.90;;;;;;5105844;28;19920;-68
2023/05/02 06:03:02;;;;;;;;;;;9.50;99.90;;;;;;5105671;28;19920;-69
2023/05/02 06:05:29;;;;;;;;;;;9.50;99.90;;;;;;5105480;28;19955;-70
2023/05/02 06:07:56;;;;;;;;;;;9.60;99.90;;;;;;5102390;28;19962;-69
2023/05/02 06:10:23;;;;;;;;;;;9.60;99.90;;;;;;5105416;28;20255;-68
2023/05/02 06:12:49;;;;;;;;;;;9.60;99.90;;;;;;5105502;28;19924;-70
2023/05/02 06:15:16;;;;;;;;;;;9.60;99.90;;;;;;5105209;28;19928;-69
2023/05/02 06:17:43;;;;;;;;;;;9.60;99.90;;;;;;5105198;28;19926;-69
2023/05/02 06:20:11;;;;;;;;;;;9.60;99.90;;;;;;5105138;28;19983;-69
2023/05/02 06:22:38;;;;;;;;;;;9.70;99.90;;;;;;5105423;28;19926;-69
2023/05/02 06:25:06;;;;;;;;;;;9.70;99.90;;;;;;5105325;28;19920;-69
2023/05/02 06:27:32;;;;;;;;;;;9.70;99.90;;;;;;5105130;28;19962;-70
2023/05/02 06:29:59;;;;;;;;;;;9.70;99.90;;;;;;5105356;28;19928;-70
2023/05/02 06:32:29;;;;;;;;;;;9.70;99.90;;;;;;5113896;28;19920;-69
2023/05/02 06:34:56;;;;;;;;;;;9.70;99.90;;;;;;5124422;28;19928;-70
2023/05/02 06:37:24;;;;;;;;;;;9.70;99.90;;;;;;5097673;28;19920;-68
2023/05/02 06:39:51;;;;;;;;;;;9.70;99.90;;;;;;5083753;28;19921;-70
2023/05/02 06:42:17;;;;;;;;;;;9.70;99.90;;;;;;5083538;28;19958;-69
2023/05/02 06:44:44;;;;;;;;;;;9.70;99.90;;;;;;5083828;28;19987;-70
2023/05/02 06:47:10;;;;;;;;;;;9.70;99.90;;;;;;5081147;28;19991;-71
2023/05/02 06:49:37;;;;;;;;;;;9.70;99.90;;;;;;5082859;28;19924;-70
2023/05/02 06:52:04;;;;;;;;;;;9.70;99.90;;;;;;5083651;28;20227;-69
2023/05/02 06:54:32;;;;;;;;;;;9.70;99.90;;;;;;5081418;28;20108;-71
2023/05/02 06:56:59;;;;;;;;;;;9.70;99.90;;;;;;5091801;28;19983;-70
2023/05/02 06:59:26;;;;;;;;;;;9.70;99.90;;;;;;5104136;28;19927;-69
2023/05/02 07:01:53;;;;;;;;;;;9.70;99.90;;;;;;5103694;28;20112;-69
2023/05/02 07:04:19;;;;;;;;;;;9.80;99.90;;;;;;5101459;28;20267;-68
2023/05/02 07:06:46;;;;;;;;;;;9.80;99.90;;;;;;5095969;28;20014;-70
2023/05/02 07:09:13;;;;;;;;;;;9.80;99.90;;;;;;5083839;28;19927;-69
2023/05/02 07:11:41;;;;;;;;;;;9.80;99.90;;;;;;5083900;28;20116;-68
2023/05/02 07:14:07;;;;;;;;;;;9.80;99.90;;;;;;5083517;28;19936;-67
2023/05/02 07:16:34;;;;;;;;;;;9.80;99.90;;;;;;5082423;28;20276;-70
2023/05/02 07:19:03;;;;;;;;;;;9.80;99.90;;;;;;5082818;28;20223;-68
2023/05/02 07:21:30;;;;;;;;;;;9.90;99.90;;;;;;5083089;28;20228;-67
2023/05/02 07:23:57;;;;;;;;;;;9.90;99.90;;;;;;5083665;28;20231;-68
2023/05/02 07:26:25;;;;;;;;;;;10.00;99.90;;;;;;5082642;28;19935;-67
2023/05/02 07:28:53;;;;;;;;;;;10.00;99.90;;;;;;5102454;28;19920;-68
2023/05/02 07:31:19;;;;;;;;;;;10.10;99.90;;;;;;5106402;28;20006;-68
2023/05/02 07:33:46;;;;;;;;;;;10.10;99.90;;;;;;5123833;28;20255;-67
2023/05/02 07:36:13;;;;;;;;;;;10.20;99.90;;;;;;5122833;28;19990;-68
2023/05/02 07:38:39;;;;;;;;;;;10.20;99.90;;;;;;5123585;28;19982;-71
2023/05/02 07:41:06;;;;;;;;;;;10.30;99.90;;;;;;5121276;28;19934;-71
2023/05/02 07:43:32;;;;;;;;;;;10.30;99.90;;;;;;5122838;28;19926;-68
2023/05/02 07:46:05;;;;;;;;;;;10.40;99.90;;;;;;5122948;28;20278;-70
2023/05/02 07:48:32;;;;;;;;;;;10.40;99.90;;;;;;5082830;28;19966;-69
2023/05/02 07:51:05;;;;;;;;;;;10.40;99.90;;;;;;5080552;28;20364;-68
2023/05/02 07:53:32;;;;;;;;;;;10.40;99.90;;;;;;5083265;28;19951;-73
2023/05/02 07:55:58;;;;;;;;;;;10.50;99.90;;;;;;5082742;28;19992;-69
2023/05/02 07:58:25;;;;;;;;;;;10.50;99.90;;;;;;5082862;28;20120;-69
2023/05/02 08:00:51;;;;;;;;;;;10.60;99.90;;;;;;5083433;28;19988;-70
2023/05/02 08:03:19;;;;;;;;;;;10.70;99.90;;;;;;5082876;28;19920;-69
2023/05/02 08:05:46;;;;;;;;;;;10.80;99.90;;;;;;5082580;28;20089;-70
2023/05/02 08:08:12;;;;;;;;;;;10.90;99.90;;;;;;5082717;28;19987;-69
2023/05/02 08:10:39;;;;;;;;;;;11.00;99.90;;;;;;5082676;28;19991;-69
2023/05/02 08:13:06;;;;;;;;;;;11.10;99.90;;;;;;5082498;28;19991;-69
2023/05/02 08:15:32;;;;;;;;;;;11.20;99.90;;;;;;5082773;28;19928;-69
2023/05/02 08:17:59;;;;;;;;;;;11.30;99.90;;;;;;5081947;28;20288;-70
2023/05/02 08:20:27;;;;;;;;;;;11.40;99.90;;;;;;5082474;28;19920;-69
2023/05/02 08:22:54;;;;;;;;;;;11.50;99.90;;;;;;5083050;28;19920;-68
2023/05/02 08:25:21;;;;;;;;;;;11.60;99.90;;;;;;5083055;28;19927;-70
2023/05/02 08:27:47;;;;;;;;;;;11.70;99.90;;;;;;5082366;28;19951;-70
2023/05/02 08:30:14;;;;;;;;;;;11.70;99.90;;;;;;5082091;28;19984;-69
2023/05/02 08:32:41;;;;;;;;;;;11.70;99.90;;;;;;5081259;28;20236;-69
2023/05/02 08:35:08;;;;;;;;;;;11.80;99.90;;;;;;5082985;28;19927;-70
2023/05/02 08:37:36;;;;;;;;;;;11.90;99.90;;;;;;5081230;28;20212;-70
2023/05/02 08:40:03;;;;;;;;;;;12.00;99.90;;;;;;5079870;28;19932;-70
2023/05/02 08:42:33;;;;;;;;;;;12.10;99.90;;;;;;5082757;28;19983;-69
2023/05/02 08:45:00;;;;;;;;;;;12.10;99.90;;;;;;5079916;28;19920;-69
2023/05/02 08:47:27;;;;;;;;;;;12.20;99.90;;;;;;5082091;28;19956;-69
2023/05/02 08:49:55;;;;;;;;;;;12.30;99.90;;;;;;5083862;28;19920;-70
2023/05/02 08:52:22;;;;;;;;;;;12.40;99.90;;;;;;5094860;28;19920;-69
2023/05/02 08:54:50;;;;;;;;;;;12.50;99.90;;;;;;5102856;28;20149;-69
2023/05/02 08:57:17;;;;;;;;;;;12.60;99.90;;;;;;5092635;28;20254;-70
2023/05/02 08:59:44;;;;;;;;;;;12.60;99.90;;;;;;5079805;28;19928;-72
2023/05/02 09:02:17;;;;;;;;;;;12.80;99.90;;;;;;5080975;28;20243;-70
2023/05/02 09:04:45;;;;;;;;;;;12.90;99.90;;;;;;5080622;28;19928;-69
2023/05/02 09:07:11;;;;;;;;;;;13.00;99.90;;;;;;5091952;28;19927;-69
2023/05/02 09:09:38;;;;;;;;;;;13.00;99.90;;;;;;5109852;28;19958;-69
2023/05/02 09:12:06;;;;;;;;;;;13.00;99.90;;;;;;5107466;28;19964;-70
2023/05/02 09:14:33;;;;;;;;;;;13.20;99.90;;;;;;5106535;28;19979;-69
2023/05/02 09:16:59;;;;;;;;;;;13.30;99.90;;;;;;5099663;28;19988;-70
2023/05/02 09:19:26;;;;;;;;;;;13.50;99.90;;;;;;5084546;28;20224;-70
2023/05/02 09:21:58;;;;;;;;;;;13.60;99.90;;;;;;5085213;28;19983;-68
2023/05/02 09:24:25;;;;;;;;;;;13.60;99.90;;;;;;5085757;28;19950;-68
2023/05/02 09:26:58;;;;;;;;;;;13.70;99.90;;;;;;5083908;28;19935;-69
2023/05/02 09:29:27;;;;;;;;;;;13.70;99.90;;;;;;5085411;28;19994;-69
2023/05/02 09:31:53;;;;;;;;;;;13.80;99.90;;;;;;5084919;28;20112;-70
2023/05/02 09:34:20;;;;;;;;;;;13.90;99.90;;;;;;5084909;28;19925;-70
2023/05/02 09:36:49;;;;;;;;;;;14.00;99.90;;;;;;5088026;28;19920;-70
2023/05/02 09:39:16;;;;;;;;;;;14.10;99.90;;;;;;5105425;28;19920;-71
2023/05/02 09:41:44;;;;;;;;;;;14.20;99.90;;;;;;5104973;28;20051;-68
2023/05/02 09:44:11;;;;;;;;;;;14.40;99.90;;;;;;5105101;28;19934;-68
2023/05/02 09:46:42;;;;;;;;;;;14.60;99.90;;;;;;5104330;28;20228;-68
2023/05/02 09:49:09;;;;;;;;;;;14.70;99.90;;;;;;5105528;28;20031;-68
2023/05/02 09:51:36;;;;;;;;;;;14.70;99.90;;;;;;5105046;28;19920;-68
2023/05/02 09:54:03;;;;;;;;;;;14.80;99.90;;;;;;5105275;28;20263;-70
2023/05/02 09:56:30;;;;;;;;;;;14.80;99.90;;;;;;5104790;28;19987;-68
2023/05/02 09:59:13;;;;;;;;;;;14.90;99.90;;;;;;5085506;28;20175;-69
2023/05/02 10:01:41;;;;;;;;;;;15.00;99.90;;;;;;5084765;28;19920;-69
2023/05/02 10:04:11;;;;;;;;;;;15.20;99.90;;;;;;5084935;28;19920;-68
2023/05/02 10:06:37;;;;;;;;;;;15.40;99.90;;;;;;5092310;28;19920;-68
2023/05/02 10:09:04;;;;;;;;;;;15.50;99.90;;;;;;5125378;28;19983;-68
2023/05/02 10:11:32;;;;;;;;;;;15.40;99.90;;;;;;5125434;28;20119;-68
2023/05/02 10:14:00;;;;;;;;;;;15.40;99.90;;;;;;5122859;28;19926;-68
2023/05/02 10:16:28;;;;;;;;;;;15.30;99.90;;;;;;5124967;28;20240;-69
2023/05/02 10:18:58;;;;;;;;;;;15.20;99.90;;;;;;5105925;28;19920;-68
2023/05/02 10:21:28;;;;;;;;;;;15.10;99.90;;;;;;5099017;28;19930;-68
2023/05/02 10:23:55;;;;;;;;;;;15.00;99.90;;;;;;5084630;28;19925;-68
2023/05/02 10:26:23;;;;;;;;;;;14.80;99.90;;;;;;5092818;28;19951;-71
2023/05/02 10:28:50;;;;;;;;;;;14.80;99.90;;;;;;5125328;28;20154;-69
2023/05/02 10:31:18;;;;;;;;;;;14.80;99.90;;;;;;5125330;28;19919;-68
2023/05/02 10:33:46;;;;;;;;;;;14.70;99.90;;;;;;5120450;28;19975;-69
2023/05/02 10:36:13;;;;;;;;;;;14.70;99.90;;;;;;5104332;28;19920;-68
2023/05/02 10:38:41;;;;;;;;;;;14.70;99.90;;;;;;5104576;28;19956;-69
2023/05/02 10:41:10;;;;;;;;;;;14.70;99.90;;;;;;5085587;28;19926;-69
2023/05/02 10:43:37;;;;;;;;;;;14.70;99.90;;;;;;5086734;28;19987;-68
2023/05/02 10:46:25;;;;;;;;;;;14.70;99.90;;;;;;5104388;28;19921;-69
2023/05/02 10:49:00;;;;;;;;;;;14.70;99.90;;;;;;5104155;28;19927;-68
2023/05/02 10:51:27;;;;;;;;;;;14.80;99.90;;;;;;5104581;28;19927;-68
2023/05/02 10:54:15;;;;;;;;;;;14.80;99.90;;;;;;5099737;28;19987;-70
2023/05/02 10:56:57;;;;;;;;;;;14.90;99.90;;;;;;5083593;28;19987;-69
2023/05/02 10:59:27;;;;;;;;;;;15.00;99.90;;;;;;5083759;28;19952;-69
2023/05/02 11:01:54;;;;;;;;;;;15.20;99.90;;;;;;5083917;28;19951;-69
2023/05/02 11:04:20;;;;;;;;;;;15.30;99.90;;;;;;5084002;28;19920;-68
2023/05/02 11:07:06;;;;;;;;;;;15.40;99.90;;;;;;5081482;28;19967;-69
2023/05/02 11:09:34;;;;;;;;;;;15.40;99.90;;;;;;5102315;28;19924;-68
2023/05/02 11:12:03;;;;;;;;;;;15.30;99.90;;;;;;5103848;28;19928;-68
2023/05/02 11:14:43;;;;;;;;;;;15.20;99.90;;;;;;5101498;28;20093;-70
2023/05/02 11:17:12;;;;;;;;;;;15.20;99.90;;;;;;5101081;28;20381;-70
2023/05/02 11:19:54;;;;;;;;;;;15.30;99.90;;;;;;5103971;28;19962;-70
2023/05/02 11:22:33;;;;;;;;;;;15.20;99.90;;;;;;5102751;28;20224;-69
2023/05/02 11:25:01;;;;;;;;;;;15.20;99.90;;;;;;5089454;28;19929;-71
2023/05/02 11:27:38;;;;;;;;;;;15.20;99.90;;;;;;5079955;28;19920;-69
2023/05/02 11:30:05;;;;;;;;;;;15.20;99.90;;;;;;5100503;28;20228;-71
2023/05/02 11:32:48;;;;;;;;;;;15.20;99.90;;;;;;5101039;28;19928;-69
2023/05/02 11:35:16;;;;;;;;;;;15.30;99.90;;;;;;5100610;28;19973;-70
2023/05/02 11:37:43;;;;;;;;;;;15.30;99.90;;;;;;5098109;28;19936;-69
2023/05/02 11:40:11;;;;;;;;;;;15.50;99.90;;;;;;5103299;28;19987;-69
2023/05/02 11:42:38;;;;;;;;;;;15.80;99.90;;;;;;5086870;28;19925;-69
2023/05/02 11:45:05;;;;;;;;;;;16.20;99.90;;;;;;5082894;28;19920;-69
2023/05/02 11:47:32;;;;;;;;;;;16.40;99.90;;;;;;5082450;28;19920;-70
2023/05/02 11:50:00;;;;;;;;;;;16.50;99.90;;;;;;5082749;28;20119;-68
2023/05/02 11:52:26;;;;;;;;;;;16.50;99.90;;;;;;5082752;28;19920;-69
2023/05/02 11:54:54;;;;;;;;;;;16.50;99.90;;;;;;5092321;28;19988;-69
2023/05/02 11:57:22;;;;;;;;;;;16.60;99.90;;;;;;5102382;28;19928;-72
2023/05/02 11:59:49;;;;;;;;;;;16.90;99.90;;;;;;5103333;28;19928;-70
2023/05/02 12:02:16;;;;;;;;;;;17.20;99.90;;;;;;5103008;28;19962;-69
2023/05/02 12:04:43;;;;;;;;;;;17.40;99.90;;;;;;5103246;28;19983;-70
2023/05/02 12:07:10;;;;;;;;;;;17.40;99.90;;;;;;5100360;28;19920;-69
2023/05/02 12:09:49;;;;;;;;;;;17.60;99.90;;;;;;5092257;28;19939;-71
2023/05/02 12:12:19;;;;;;;;;;;18.00;99.90;;;;;;5093511;28;19920;-69
2023/05/02 12:14:47;;;;;;;;;;;18.30;99.90;;;;;;5100595;28;19932;-70
2023/05/02 12:17:14;;;;;;;;;;;18.30;99.90;;;;;;5098794;28;19920;-71
2023/05/02 12:19:40;;;;;;;;;;;18.00;99.90;;;;;;5102750;28;19962;-70
2023/05/02 12:22:07;;;;;;;;;;;17.70;99.90;;;;;;5102513;28;19920;-69
2023/05/02 12:24:35;;;;;;;;;;;17.30;99.90;;;;;;5096389;28;19983;-70
2023/05/02 12:27:11;;;;;;;;;;;16.80;99.90;;;;;;5083591;28;19927;-70
2023/05/02 12:29:38;;;;;;;;;;;16.50;99.90;;;;;;5102307;28;19995;-71
2023/05/02 12:32:06;;;;;;;;;;;16.20;99.90;;;;;;5103097;28;19920;-69
2023/05/02 12:34:33;;;;;;;;;;;16.00;99.90;;;;;;5103227;28;19926;-68
2023/05/02 12:36:59;;;;;;;;;;;15.90;99.90;;;;;;5102852;28;19979;-70
2023/05/02 12:39:34;;;;;;;;;;;15.80;99.90;;;;;;5104133;28;19924;-70
2023/05/02 12:42:01;;;;;;;;;;;15.90;99.90;;;;;;5097690;28;20104;-69
2023/05/02 12:44:38;;;;;;;;;;;16.00;99.90;;;;;;5117063;28;19961;-69
2023/05/02 12:47:06;;;;;;;;;;;16.10;99.90;;;;;;5105367;28;19920;-70
2023/05/02 12:49:33;;;;;;;;;;;16.20;99.90;;;;;;5104134;28;19920;-73
2023/05/02 12:52:01;;;;;;;;;;;16.30;99.90;;;;;;5106701;28;20159;-69
2023/05/02 12:54:28;;;;;;;;;;;16.60;99.90;;;;;;5101711;28;19950;-70
2023/05/02 12:56:54;;;;;;;;;;;16.80;99.90;;;;;;5105800;28;19924;-70
2023/05/02 12:59:28;;;;;;;;;;;17.10;99.90;;;;;;5106242;28;20176;-69
2023/05/02 13:01:54;;;;;;;;;;;17.30;99.90;;;;;;5106718;28;19961;-68
2023/05/02 13:04:33;;;;;;;;;;;17.60;99.90;;;;;;5105255;28;19983;-70
2023/05/02 13:06:59;;;;;;;;;;;17.80;99.90;;;;;;5096741;28;20234;-70
2023/05/02 13:09:26;;;;;;;;;;;18.10;99.90;;;;;;5096951;28;19935;-68
2023/05/02 13:11:53;;;;;;;;;;;18.50;99.90;;;;;;5096443;28;19927;-68
2023/05/02 13:14:20;;;;;;;;;;;18.30;99.90;;;;;;5086200;28;19955;-69
2023/05/02 13:16:46;;;;;;;;;;;18.10;99.90;;;;;;5100180;28;19991;-70
2023/05/02 13:19:13;;;;;;;;;;;18.20;99.90;;;;;;5106379;28;19979;-69
2023/05/02 13:21:41;;;;;;;;;;;18.40;99.90;;;;;;5105975;28;19991;-69
2023/05/02 13:24:07;;;;;;;;;;;18.40;99.90;;;;;;5093487;28;19987;-70
2023/05/02 13:26:34;;;;;;;;;;;18.60;99.90;;;;;;5091249;28;19936;-69
2023/05/02 13:29:01;;;;;;;;;;;18.80;99.90;;;;;;5086035;28;19952;-69
2023/05/02 13:31:30;;;;;;;;;;;19.10;99.90;;;;;;5085840;28;20299;-69
2023/05/02 13:33:56;;;;;;;;;;;19.20;99.90;;;;;;5086149;28;19954;-69
2023/05/02 13:36:23;;;;;;;;;;;18.80;99.90;;;;;;5085488;28;20165;-68
2023/05/02 13:38:51;;;;;;;;;;;18.50;99.90;;;;;;5084583;28;20262;-70
2023/05/02 13:41:18;;;;;;;;;;;18.10;99.90;;;;;;5085643;28;19988;-69
2023/05/02 13:43:45;;;;;;;;;;;17.70;99.90;;;;;;5084292;28;19921;-68
2023/05/02 13:46:11;;;;;;;;;;;17.40;99.90;;;;;;5099560;28;19952;-69
2023/05/02 13:48:38;;;;;;;;;;;17.30;99.90;;;;;;5103412;28;20163;-70
2023/05/02 13:51:05;;;;;;;;;;;17.40;99.90;;;;;;5101782;28;19926;-68
2023/05/02 13:53:31;;;;;;;;;;;17.50;99.90;;;;;;5094155;28;19992;-68
2023/05/02 13:55:59;;;;;;;;;;;17.60;99.90;;;;;;5085127;28;20157;-68
2023/05/02 13:58:26;;;;;;;;;;;17.50;99.90;;;;;;5094888;28;19926;-67
2023/05/02 14:00:52;;;;;;;;;;;17.60;99.90;;;;;;5084989;28;19963;-68
2023/05/02 14:03:19;;;;;;;;;;;17.90;99.90;;;;;;5094365;28;19920;-67
2023/05/02 14:05:46;;;;;;;;;;;17.90;99.90;;;;;;5096730;28;19980;-66
2023/05/02 14:08:17;;;;;;;;;;;17.70;99.90;;;;;;5093595;28;20272;-65
2023/05/02 14:10:43;;;;;;;;;;;17.40;99.90;;;;;;5102018;28;20222;-66
2023/05/02 14:13:11;;;;;;;;;;;17.10;99.90;;;;;;5104488;28;19955;-69
2023/05/02 14:15:38;;;;;;;;;;;17.10;99.90;;;;;;5105111;28;19920;-67
2023/05/02 14:18:04;;;;;;;;;;;17.00;99.90;;;;;;5104477;28;20152;-67
2023/05/02 14:20:31;;;;;;;;;;;17.00;99.90;;;;;;5094965;28;19982;-69
2023/05/02 14:22:57;;;;;;;;;;;16.90;99.90;;;;;;5104641;28;19951;-69
2023/05/02 14:25:24;;;;;;;;;;;16.80;99.90;;;;;;5105232;28;19948;-68
2023/05/02 14:27:51;;;;;;;;;;;16.90;99.90;;;;;;5104550;28;19920;-68